sensor_id;sensor_type;location;lat;lon;timestamp;P1;durP1;ratioP1;P2;durP2;ratioP2
19869;SDS011;10097;50.862;4.696;2023-02-28T00:00:46;8.97;;;4.17;;
19869;SDS011;10097;50.862;4.696;2023-02-28T00:03:12;14.47;;;4.60;;
19869;SDS011;10097;50.862;4.696;2023-02-28T00:05:38;11.63;;;4.20;;
19869;SDS011;10097;50.862;4.696;2023-02-28T00:08:03;12.83;;;4.70;;
19869;SDS011;10097;50.862;4.696;2023-02-28T00:10:30;12.53;;;4.50;;
19869;SDS011;10097;50.862;4.696;2023-02-28T00:12:59;18.40;;;4.97;;
19869;SDS011;10097;50.862;4.696;2023-02-28T00:15:30;14.03;;;4.90;;
19869;SDS011;10097;50.862;4.696;2023-02-28T00:17:56;11.20;;;4.53;;
19869;SDS011;10097;50.862;4.696;2023-02-28T00:20:22;14.57;;;4.53;;
19869;SDS011;10097;50.862;4.696;2023-02-28T00:22:49;12.30;;;4.90;;
19869;SDS011;10097;50.862;4.696;2023-02-28T00:25:17;13.03;;;4.37;;
19869;SDS011;10097;50.862;4.696;2023-02-28T00:27:45;11.30;;;4.30;;
19869;SDS011;10097;50.862;4.696;2023-02-28T00:30:12;14.03;;;4.67;;
19869;SDS011;10097;50.862;4.696;2023-02-28T00:32:40;10.77;;;3.97;;
19869;SDS011;10097;50.862;4.696;2023-02-28T00:35:06;9.03;;;4.13;;
19869;SDS011;10097;50.862;4.696;2023-02-28T00:37:33;12.27;;;4.73;;
19869;SDS011;10097;50.862;4.696;2023-02-28T00:39:59;15.17;;;4.70;;
19869;SDS011;10097;50.862;4.696;2023-02-28T00:42:25;12.40;;;4.27;;
19869;SDS011;10097;50.862;4.696;2023-02-28T00:44:51;9.37;;;4.40;;
19869;SDS011;10097;50.862;4.696;2023-02-28T00:47:17;12.77;;;4.23;;
19869;SDS011;10097;50.862;4.696;2023-02-28T00:49:43;9.23;;;4.30;;
19869;SDS011;10097;50.862;4.696;2023-02-28T00:52:08;11.17;;;4.63;;
19869;SDS011;10097;50.862;4.696;2023-02-28T00:54:34;9.47;;;4.00;;
19869;SDS011;10097;50.862;4.696;2023-02-28T00:57:00;11.93;;;4.03;;
19869;SDS011;10097;50.862;4.696;2023-02-28T00:59:25;13.87;;;5.30;;
19869;SDS011;10097;50.862;4.696;2023-02-28T01:01:51;15.10;;;4.43;;
19869;SDS011;10097;50.862;4.696;2023-02-28T01:04:17;8.70;;;4.00;;
19869;SDS011;10097;50.862;4.696;2023-02-28T01:06:42;11.83;;;4.27;;
19869;SDS011;10097;50.862;4.696;2023-02-28T01:09:08;11.70;;;4.37;;
19869;SDS011;10097;50.862;4.696;2023-02-28T01:11:34;8.93;;;3.90;;
19869;SDS011;10097;50.862;4.696;2023-02-28T01:14:00;12.57;;;4.50;;
19869;SDS011;10097;50.862;4.696;2023-02-28T01:16:27;10.43;;;4.50;;
19869;SDS011;10097;50.862;4.696;2023-02-28T01:18:53;10.43;;;4.57;;
19869;SDS011;10097;50.862;4.696;2023-02-28T01:21:19;10.57;;;4.57;;
19869;SDS011;10097;50.862;4.696;2023-02-28T01:23:46;10.07;;;4.10;;
19869;SDS011;10097;50.862;4.696;2023-02-28T01:28:40;11.90;;;4.23;;
19869;SDS011;10097;50.862;4.696;2023-02-28T01:31:06;11.30;;;3.87;;
19869;SDS011;10097;50.862;4.696;2023-02-28T01:33:32;10.87;;;4.20;;
19869;SDS011;10097;50.862;4.696;2023-02-28T01:36:02;12.77;;;4.67;;
19869;SDS011;10097;50.862;4.696;2023-02-28T01:38:34;11.37;;;4.23;;
19869;SDS011;10097;50.862;4.696;2023-02-28T01:41:00;15.97;;;4.83;;
19869;SDS011;10097;50.862;4.696;2023-02-28T01:43:52;10.93;;;4.50;;
19869;SDS011;10097;50.862;4.696;2023-02-28T01:46:19;13.07;;;5.17;;
19869;SDS011;10097;50.862;4.696;2023-02-28T01:48:46;11.10;;;4.30;;
19869;SDS011;10097;50.862;4.696;2023-02-28T01:51:39;11.97;;;4.83;;
19869;SDS011;10097;50.862;4.696;2023-02-28T01:54:09;12.67;;;5.20;;
19869;SDS011;10097;50.862;4.696;2023-02-28T01:56:38;14.10;;;5.43;;
19869;SDS011;10097;50.862;4.696;2023-02-28T01:59:14;13.10;;;4.47;;
19869;SDS011;10097;50.862;4.696;2023-02-28T02:01:46;13.33;;;4.67;;
19869;SDS011;10097;50.862;4.696;2023-02-28T02:04:13;12.60;;;4.47;;
19869;SDS011;10097;50.862;4.696;2023-02-28T02:06:43;10.40;;;4.83;;
19869;SDS011;10097;50.862;4.696;2023-02-28T02:09:11;13.53;;;4.87;;
19869;SDS011;10097;50.862;4.696;2023-02-28T02:11:37;12.20;;;5.17;;
19869;SDS011;10097;50.862;4.696;2023-02-28T02:16:57;14.07;;;5.03;;
19869;SDS011;10097;50.862;4.696;2023-02-28T02:36:27;11.17;;;5.17;;
19869;SDS011;10097;50.862;4.696;2023-02-28T02:41:36;18.37;;;5.10;;
19869;SDS011;10097;50.862;4.696;2023-02-28T02:44:13;13.40;;;5.70;;
19869;SDS011;10097;50.862;4.696;2023-02-28T02:46:47;12.13;;;5.77;;
19869;SDS011;10097;50.862;4.696;2023-02-28T02:49:16;11.63;;;5.30;;
19869;SDS011;10097;50.862;4.696;2023-02-28T02:51:55;13.83;;;4.93;;
19869;SDS011;10097;50.862;4.696;2023-02-28T02:54:25;12.03;;;5.40;;
19869;SDS011;10097;50.862;4.696;2023-02-28T02:56:53;16.13;;;6.23;;
19869;SDS011;10097;50.862;4.696;2023-02-28T02:59:23;13.10;;;5.63;;
19869;SDS011;10097;50.862;4.696;2023-02-28T03:01:52;11.33;;;5.67;;
19869;SDS011;10097;50.862;4.696;2023-02-28T03:04:21;17.23;;;5.60;;
19869;SDS011;10097;50.862;4.696;2023-02-28T03:06:49;13.43;;;5.80;;
19869;SDS011;10097;50.862;4.696;2023-02-28T03:09:19;13.77;;;5.40;;
19869;SDS011;10097;50.862;4.696;2023-02-28T03:11:49;14.37;;;5.13;;
19869;SDS011;10097;50.862;4.696;2023-02-28T03:19:44;14.37;;;5.83;;
19869;SDS011;10097;50.862;4.696;2023-02-28T03:33:29;13.07;;;5.90;;
19869;SDS011;10097;50.862;4.696;2023-02-28T03:36:04;19.03;;;6.67;;
19869;SDS011;10097;50.862;4.696;2023-02-28T03:38:57;12.73;;;5.47;;
19869;SDS011;10097;50.862;4.696;2023-02-28T03:41:42;15.70;;;6.40;;
19869;SDS011;10097;50.862;4.696;2023-02-28T03:44:11;16.70;;;6.60;;
19869;SDS011;10097;50.862;4.696;2023-02-28T03:46:42;11.67;;;6.10;;
19869;SDS011;10097;50.862;4.696;2023-02-28T03:49:21;14.63;;;6.90;;
19869;SDS011;10097;50.862;4.696;2023-02-28T03:51:54;13.20;;;6.20;;
19869;SDS011;10097;50.862;4.696;2023-02-28T03:54:23;13.20;;;6.33;;
19869;SDS011;10097;50.862;4.696;2023-02-28T03:56:59;13.97;;;5.73;;
19869;SDS011;10097;50.862;4.696;2023-02-28T03:59:32;13.17;;;5.80;;
19869;SDS011;10097;50.862;4.696;2023-02-28T04:02:02;13.97;;;6.27;;
19869;SDS011;10097;50.862;4.696;2023-02-28T04:04:28;14.37;;;6.60;;
19869;SDS011;10097;50.862;4.696;2023-02-28T04:07:00;14.73;;;6.93;;
19869;SDS011;10097;50.862;4.696;2023-02-28T04:09:30;13.10;;;6.47;;
19869;SDS011;10097;50.862;4.696;2023-02-28T04:11:56;14.13;;;7.07;;
19869;SDS011;10097;50.862;4.696;2023-02-28T04:14:22;13.27;;;6.60;;
19869;SDS011;10097;50.862;4.696;2023-02-28T04:16:48;17.53;;;6.73;;
19869;SDS011;10097;50.862;4.696;2023-02-28T04:19:13;19.63;;;6.80;;
19869;SDS011;10097;50.862;4.696;2023-02-28T04:21:46;16.23;;;6.57;;
19869;SDS011;10097;50.862;4.696;2023-02-28T04:24:15;19.73;;;6.83;;
19869;SDS011;10097;50.862;4.696;2023-02-28T04:26:44;18.60;;;7.43;;
19869;SDS011;10097;50.862;4.696;2023-02-28T04:29:14;15.60;;;6.77;;
19869;SDS011;10097;50.862;4.696;2023-02-28T04:31:44;14.43;;;7.00;;
19869;SDS011;10097;50.862;4.696;2023-02-28T04:34:10;16.70;;;7.47;;
19869;SDS011;10097;50.862;4.696;2023-02-28T04:36:36;16.20;;;6.87;;
19869;SDS011;10097;50.862;4.696;2023-02-28T04:39:01;16.50;;;7.43;;
19869;SDS011;10097;50.862;4.696;2023-02-28T04:41:28;15.93;;;7.00;;
19869;SDS011;10097;50.862;4.696;2023-02-28T04:43:54;15.17;;;6.87;;
19869;SDS011;10097;50.862;4.696;2023-02-28T04:46:21;16.27;;;6.73;;
19869;SDS011;10097;50.862;4.696;2023-02-28T04:48:47;16.47;;;7.40;;
19869;SDS011;10097;50.862;4.696;2023-02-28T04:51:14;16.67;;;7.53;;
19869;SDS011;10097;50.862;4.696;2023-02-28T04:53:41;13.93;;;7.40;;
19869;SDS011;10097;50.862;4.696;2023-02-28T04:56:08;16.87;;;7.53;;
19869;SDS011;10097;50.862;4.696;2023-02-28T04:58:37;16.60;;;7.63;;
19869;SDS011;10097;50.862;4.696;2023-02-28T05:01:03;15.97;;;7.67;;
19869;SDS011;10097;50.862;4.696;2023-02-28T05:03:37;18.67;;;7.00;;
19869;SDS011;10097;50.862;4.696;2023-02-28T05:06:10;16.70;;;7.20;;
19869;SDS011;10097;50.862;4.696;2023-02-28T05:08:37;16.57;;;7.07;;
19869;SDS011;10097;50.862;4.696;2023-02-28T05:11:03;20.83;;;7.60;;
19869;SDS011;10097;50.862;4.696;2023-02-28T05:13:31;19.20;;;7.57;;
19869;SDS011;10097;50.862;4.696;2023-02-28T05:15:56;15.37;;;7.67;;
19869;SDS011;10097;50.862;4.696;2023-02-28T05:18:22;19.17;;;7.63;;
19869;SDS011;10097;50.862;4.696;2023-02-28T05:20:47;17.13;;;8.10;;
19869;SDS011;10097;50.862;4.696;2023-02-28T05:23:13;16.23;;;7.47;;
19869;SDS011;10097;50.862;4.696;2023-02-28T05:25:40;14.93;;;7.27;;
19869;SDS011;10097;50.862;4.696;2023-02-28T05:28:06;15.83;;;7.37;;
19869;SDS011;10097;50.862;4.696;2023-02-28T05:30:32;18.50;;;7.53;;
19869;SDS011;10097;50.862;4.696;2023-02-28T05:32:58;18.27;;;7.10;;
19869;SDS011;10097;50.862;4.696;2023-02-28T05:35:24;17.03;;;7.37;;
19869;SDS011;10097;50.862;4.696;2023-02-28T05:37:50;18.10;;;8.30;;
19869;SDS011;10097;50.862;4.696;2023-02-28T05:40:16;16.63;;;7.53;;
19869;SDS011;10097;50.862;4.696;2023-02-28T05:42:42;15.00;;;7.00;;
19869;SDS011;10097;50.862;4.696;2023-02-28T05:45:08;15.57;;;7.33;;
19869;SDS011;10097;50.862;4.696;2023-02-28T05:47:34;18.63;;;8.00;;
19869;SDS011;10097;50.862;4.696;2023-02-28T05:50:00;16.37;;;7.83;;
19869;SDS011;10097;50.862;4.696;2023-02-28T05:52:27;19.80;;;8.20;;
19869;SDS011;10097;50.862;4.696;2023-02-28T05:54:53;15.83;;;7.57;;
19869;SDS011;10097;50.862;4.696;2023-02-28T05:57:18;27.67;;;8.77;;
19869;SDS011;10097;50.862;4.696;2023-02-28T05:59:44;16.63;;;7.97;;
19869;SDS011;10097;50.862;4.696;2023-02-28T06:02:14;14.73;;;7.40;;
19869;SDS011;10097;50.862;4.696;2023-02-28T06:04:41;17.33;;;7.90;;
19869;SDS011;10097;50.862;4.696;2023-02-28T06:07:07;15.73;;;7.73;;
19869;SDS011;10097;50.862;4.696;2023-02-28T06:09:33;18.27;;;7.40;;
19869;SDS011;10097;50.862;4.696;2023-02-28T06:11:59;16.30;;;8.33;;
19869;SDS011;10097;50.862;4.696;2023-02-28T06:14:28;18.53;;;7.77;;
19869;SDS011;10097;50.862;4.696;2023-02-28T06:16:56;14.70;;;7.30;;
19869;SDS011;10097;50.862;4.696;2023-02-28T06:19:22;19.23;;;8.23;;
19869;SDS011;10097;50.862;4.696;2023-02-28T06:21:50;20.50;;;8.20;;
19869;SDS011;10097;50.862;4.696;2023-02-28T06:24:18;16.67;;;7.80;;
19869;SDS011;10097;50.862;4.696;2023-02-28T06:26:44;17.97;;;8.20;;
19869;SDS011;10097;50.862;4.696;2023-02-28T06:29:10;15.93;;;8.30;;
19869;SDS011;10097;50.862;4.696;2023-02-28T06:31:36;20.97;;;8.47;;
19869;SDS011;10097;50.862;4.696;2023-02-28T06:34:03;15.43;;;7.17;;
19869;SDS011;10097;50.862;4.696;2023-02-28T06:36:29;17.70;;;7.63;;
19869;SDS011;10097;50.862;4.696;2023-02-28T06:38:55;16.90;;;7.57;;
19869;SDS011;10097;50.862;4.696;2023-02-28T06:41:25;15.40;;;7.97;;
19869;SDS011;10097;50.862;4.696;2023-02-28T06:43:51;16.83;;;7.80;;
19869;SDS011;10097;50.862;4.696;2023-02-28T06:46:18;19.57;;;8.00;;
19869;SDS011;10097;50.862;4.696;2023-02-28T06:48:44;18.67;;;9.30;;
19869;SDS011;10097;50.862;4.696;2023-02-28T06:51:11;19.40;;;7.87;;
19869;SDS011;10097;50.862;4.696;2023-02-28T06:53:39;19.43;;;7.60;;
19869;SDS011;10097;50.862;4.696;2023-02-28T06:56:06;19.10;;;8.30;;
19869;SDS011;10097;50.862;4.696;2023-02-28T06:58:33;18.40;;;7.80;;
19869;SDS011;10097;50.862;4.696;2023-02-28T07:00:59;27.83;;;8.23;;
19869;SDS011;10097;50.862;4.696;2023-02-28T07:03:25;14.93;;;7.50;;
19869;SDS011;10097;50.862;4.696;2023-02-28T07:05:51;15.50;;;8.10;;
19869;SDS011;10097;50.862;4.696;2023-02-28T07:08:16;16.73;;;7.53;;
19869;SDS011;10097;50.862;4.696;2023-02-28T07:10:42;18.77;;;8.30;;
19869;SDS011;10097;50.862;4.696;2023-02-28T07:13:09;18.00;;;7.80;;
19869;SDS011;10097;50.862;4.696;2023-02-28T07:15:38;24.13;;;10.47;;
19869;SDS011;10097;50.862;4.696;2023-02-28T07:18:03;14.97;;;7.97;;
19869;SDS011;10097;50.862;4.696;2023-02-28T07:20:29;15.63;;;7.43;;
19869;SDS011;10097;50.862;4.696;2023-02-28T07:22:55;17.10;;;7.90;;
19869;SDS011;10097;50.862;4.696;2023-02-28T07:25:28;19.33;;;8.17;;
19869;SDS011;10097;50.862;4.696;2023-02-28T07:27:54;17.47;;;7.73;;
19869;SDS011;10097;50.862;4.696;2023-02-28T07:30:21;18.60;;;7.87;;
19869;SDS011;10097;50.862;4.696;2023-02-28T07:32:46;17.07;;;7.90;;
19869;SDS011;10097;50.862;4.696;2023-02-28T07:35:13;17.73;;;7.53;;
19869;SDS011;10097;50.862;4.696;2023-02-28T07:37:40;16.13;;;7.80;;
19869;SDS011;10097;50.862;4.696;2023-02-28T07:40:07;17.20;;;7.97;;
19869;SDS011;10097;50.862;4.696;2023-02-28T07:42:36;18.37;;;7.37;;
19869;SDS011;10097;50.862;4.696;2023-02-28T07:45:03;14.33;;;7.57;;
19869;SDS011;10097;50.862;4.696;2023-02-28T07:47:31;19.37;;;7.80;;
19869;SDS011;10097;50.862;4.696;2023-02-28T07:49:57;17.40;;;7.07;;
19869;SDS011;10097;50.862;4.696;2023-02-28T07:52:23;16.27;;;7.30;;
19869;SDS011;10097;50.862;4.696;2023-02-28T07:54:49;16.40;;;7.07;;
19869;SDS011;10097;50.862;4.696;2023-02-28T07:57:15;15.50;;;6.20;;
19869;SDS011;10097;50.862;4.696;2023-02-28T07:59:41;15.40;;;6.80;;
19869;SDS011;10097;50.862;4.696;2023-02-28T08:02:17;19.63;;;7.07;;
19869;SDS011;10097;50.862;4.696;2023-02-28T08:04:43;14.07;;;5.93;;
19869;SDS011;10097;50.862;4.696;2023-02-28T08:07:09;14.57;;;6.17;;
19869;SDS011;10097;50.862;4.696;2023-02-28T08:09:38;14.43;;;5.50;;
19869;SDS011;10097;50.862;4.696;2023-02-28T08:12:05;13.33;;;5.57;;
19869;SDS011;10097;50.862;4.696;2023-02-28T08:14:31;14.13;;;5.50;;
19869;SDS011;10097;50.862;4.696;2023-02-28T08:16:57;13.67;;;5.83;;
19869;SDS011;10097;50.862;4.696;2023-02-28T08:19:23;14.13;;;5.37;;
19869;SDS011;10097;50.862;4.696;2023-02-28T08:21:49;10.40;;;4.43;;
19869;SDS011;10097;50.862;4.696;2023-02-28T08:24:14;13.43;;;5.33;;
19869;SDS011;10097;50.862;4.696;2023-02-28T08:26:40;15.43;;;6.07;;
19869;SDS011;10097;50.862;4.696;2023-02-28T08:29:05;12.77;;;5.27;;
19869;SDS011;10097;50.862;4.696;2023-02-28T08:31:31;9.53;;;4.80;;
19869;SDS011;10097;50.862;4.696;2023-02-28T08:33:57;12.13;;;5.30;;
19869;SDS011;10097;50.862;4.696;2023-02-28T08:36:23;8.57;;;4.63;;
19869;SDS011;10097;50.862;4.696;2023-02-28T08:38:50;10.47;;;4.73;;
19869;SDS011;10097;50.862;4.696;2023-02-28T08:41:16;13.73;;;5.07;;
19869;SDS011;10097;50.862;4.696;2023-02-28T08:43:42;11.87;;;4.83;;
19869;SDS011;10097;50.862;4.696;2023-02-28T08:46:08;12.17;;;4.60;;
19869;SDS011;10097;50.862;4.696;2023-02-28T08:48:38;11.00;;;4.37;;
19869;SDS011;10097;50.862;4.696;2023-02-28T08:51:05;10.33;;;4.60;;
19869;SDS011;10097;50.862;4.696;2023-02-28T08:53:43;10.00;;;4.40;;
19869;SDS011;10097;50.862;4.696;2023-02-28T08:56:10;11.10;;;4.10;;
19869;SDS011;10097;50.862;4.696;2023-02-28T08:58:37;12.93;;;4.30;;
19869;SDS011;10097;50.862;4.696;2023-02-28T09:01:07;10.77;;;4.07;;
19869;SDS011;10097;50.862;4.696;2023-02-28T09:03:38;11.03;;;4.60;;
19869;SDS011;10097;50.862;4.696;2023-02-28T09:06:05;8.83;;;3.63;;
19869;SDS011;10097;50.862;4.696;2023-02-28T09:08:31;11.07;;;3.90;;
19869;SDS011;10097;50.862;4.696;2023-02-28T09:10:57;10.10;;;3.90;;
19869;SDS011;10097;50.862;4.696;2023-02-28T09:13:24;9.20;;;3.87;;
19869;SDS011;10097;50.862;4.696;2023-02-28T09:15:51;10.43;;;3.40;;
19869;SDS011;10097;50.862;4.696;2023-02-28T09:18:16;7.73;;;3.40;;
19869;SDS011;10097;50.862;4.696;2023-02-28T09:20:42;9.97;;;3.83;;
19869;SDS011;10097;50.862;4.696;2023-02-28T09:23:08;10.57;;;3.27;;
19869;SDS011;10097;50.862;4.696;2023-02-28T09:25:36;11.97;;;3.67;;
19869;SDS011;10097;50.862;4.696;2023-02-28T09:28:02;6.67;;;3.00;;
19869;SDS011;10097;50.862;4.696;2023-02-28T09:30:28;6.53;;;2.57;;
19869;SDS011;10097;50.862;4.696;2023-02-28T09:32:54;11.00;;;3.00;;
19869;SDS011;10097;50.862;4.696;2023-02-28T09:35:20;8.00;;;3.03;;
19869;SDS011;10097;50.862;4.696;2023-02-28T09:37:50;7.80;;;3.17;;
19869;SDS011;10097;50.862;4.696;2023-02-28T09:40:17;6.67;;;3.00;;
19869;SDS011;10097;50.862;4.696;2023-02-28T09:42:49;6.27;;;3.00;;
19869;SDS011;10097;50.862;4.696;2023-02-28T09:45:22;6.10;;;2.20;;
19869;SDS011;10097;50.862;4.696;2023-02-28T09:48:10;5.10;;;2.23;;
19869;SDS011;10097;50.862;4.696;2023-02-28T09:50:46;7.47;;;2.40;;
19869;SDS011;10097;50.862;4.696;2023-02-28T09:53:34;7.93;;;2.73;;
19869;SDS011;10097;50.862;4.696;2023-02-28T09:56:05;6.37;;;2.27;;
19869;SDS011;10097;50.862;4.696;2023-02-28T09:58:38;6.10;;;2.30;;
19869;SDS011;10097;50.862;4.696;2023-02-28T10:06:50;7.73;;;2.60;;
19869;SDS011;10097;50.862;4.696;2023-02-28T10:09:22;7.63;;;2.90;;
19869;SDS011;10097;50.862;4.696;2023-02-28T10:11:52;6.60;;;2.47;;
19869;SDS011;10097;50.862;4.696;2023-02-28T10:14:22;6.47;;;2.50;;
19869;SDS011;10097;50.862;4.696;2023-02-28T10:16:52;5.13;;;2.17;;
19869;SDS011;10097;50.862;4.696;2023-02-28T10:22:12;7.07;;;2.40;;
19869;SDS011;10097;50.862;4.696;2023-02-28T10:24:44;7.40;;;2.47;;
19869;SDS011;10097;50.862;4.696;2023-02-28T10:27:15;5.93;;;2.40;;
19869;SDS011;10097;50.862;4.696;2023-02-28T10:29:44;6.27;;;2.23;;
19869;SDS011;10097;50.862;4.696;2023-02-28T10:32:19;4.83;;;2.07;;
19869;SDS011;10097;50.862;4.696;2023-02-28T10:35:01;5.17;;;1.80;;
19869;SDS011;10097;50.862;4.696;2023-02-28T10:37:37;5.00;;;1.77;;
19869;SDS011;10097;50.862;4.696;2023-02-28T10:40:04;6.33;;;2.10;;
19869;SDS011;10097;50.862;4.696;2023-02-28T10:42:31;4.33;;;1.80;;
19869;SDS011;10097;50.862;4.696;2023-02-28T10:47:39;4.57;;;2.03;;
19869;SDS011;10097;50.862;4.696;2023-02-28T10:55:45;6.97;;;2.00;;
19869;SDS011;10097;50.862;4.696;2023-02-28T10:58:21;6.63;;;2.43;;
19869;SDS011;10097;50.862;4.696;2023-02-28T11:00:49;6.13;;;2.10;;
19869;SDS011;10097;50.862;4.696;2023-02-28T11:03:28;6.00;;;2.10;;
19869;SDS011;10097;50.862;4.696;2023-02-28T11:06:03;6.60;;;2.47;;
19869;SDS011;10097;50.862;4.696;2023-02-28T11:08:31;7.73;;;2.17;;
19869;SDS011;10097;50.862;4.696;2023-02-28T11:10:58;7.17;;;2.40;;
19869;SDS011;10097;50.862;4.696;2023-02-28T11:13:30;10.33;;;2.20;;
19869;SDS011;10097;50.862;4.696;2023-02-28T11:15:59;4.97;;;1.87;;
19869;SDS011;10097;50.862;4.696;2023-02-28T11:18:40;9.03;;;2.43;;
19869;SDS011;10097;50.862;4.696;2023-02-28T11:21:16;5.87;;;1.60;;
19869;SDS011;10097;50.862;4.696;2023-02-28T11:23:47;5.33;;;2.00;;
19869;SDS011;10097;50.862;4.696;2023-02-28T11:26:16;4.97;;;2.27;;
19869;SDS011;10097;50.862;4.696;2023-02-28T11:29:10;5.93;;;2.07;;
19869;SDS011;10097;50.862;4.696;2023-02-28T11:34:44;4.70;;;1.70;;
19869;SDS011;10097;50.862;4.696;2023-02-28T11:37:12;8.77;;;1.60;;
19869;SDS011;10097;50.862;4.696;2023-02-28T11:39:40;5.47;;;1.77;;
19869;SDS011;10097;50.862;4.696;2023-02-28T11:47:39;3.47;;;1.50;;
19869;SDS011;10097;50.862;4.696;2023-02-28T11:50:52;5.17;;;1.77;;
19869;SDS011;10097;50.862;4.696;2023-02-28T11:58:49;3.90;;;1.70;;
19869;SDS011;10097;50.862;4.696;2023-02-28T12:04:16;4.93;;;1.97;;
19869;SDS011;10097;50.862;4.696;2023-02-28T12:26:22;4.00;;;1.80;;
19869;SDS011;10097;50.862;4.696;2023-02-28T12:29:02;4.73;;;1.70;;
19869;SDS011;10097;50.862;4.696;2023-02-28T12:31:40;4.70;;;2.10;;
19869;SDS011;10097;50.862;4.696;2023-02-28T12:34:15;3.27;;;1.90;;
19869;SDS011;10097;50.862;4.696;2023-02-28T12:36:49;4.17;;;1.67;;
19869;SDS011;10097;50.862;4.696;2023-02-28T12:39:20;4.73;;;1.70;;
19869;SDS011;10097;50.862;4.696;2023-02-28T12:41:55;7.57;;;4.10;;
19869;SDS011;10097;50.862;4.696;2023-02-28T12:44:30;6.00;;;1.93;;
19869;SDS011;10097;50.862;4.696;2023-02-28T12:46:58;4.80;;;1.87;;
19869;SDS011;10097;50.862;4.696;2023-02-28T12:49:31;4.73;;;1.90;;
19869;SDS011;10097;50.862;4.696;2023-02-28T12:52:07;7.63;;;2.13;;
19869;SDS011;10097;50.862;4.696;2023-02-28T12:57:22;7.43;;;2.30;;
19869;SDS011;10097;50.862;4.696;2023-02-28T13:00:20;4.50;;;1.80;;
19869;SDS011;10097;50.862;4.696;2023-02-28T13:11:47;3.20;;;1.47;;
19869;SDS011;10097;50.862;4.696;2023-02-28T13:16:56;4.17;;;1.90;;
19869;SDS011;10097;50.862;4.696;2023-02-28T13:19:45;4.67;;;1.90;;
19869;SDS011;10097;50.862;4.696;2023-02-28T13:24:57;3.63;;;1.73;;
19869;SDS011;10097;50.862;4.696;2023-02-28T13:27:24;8.00;;;2.30;;
19869;SDS011;10097;50.862;4.696;2023-02-28T13:30:49;5.00;;;1.90;;
19869;SDS011;10097;50.862;4.696;2023-02-28T13:38:39;4.17;;;1.60;;
19869;SDS011;10097;50.862;4.696;2023-02-28T13:49:32;4.27;;;1.73;;
19869;SDS011;10097;50.862;4.696;2023-02-28T13:52:11;5.27;;;1.70;;
19869;SDS011;10097;50.862;4.696;2023-02-28T14:03:04;3.87;;;1.73;;
19869;SDS011;10097;50.862;4.696;2023-02-28T14:08:33;6.40;;;2.27;;
19869;SDS011;10097;50.862;4.696;2023-02-28T14:11:08;4.07;;;1.70;;
19869;SDS011;10097;50.862;4.696;2023-02-28T14:13:48;3.97;;;1.97;;
19869;SDS011;10097;50.862;4.696;2023-02-28T14:16:20;4.33;;;1.77;;
19869;SDS011;10097;50.862;4.696;2023-02-28T14:19:02;7.00;;;2.00;;
19869;SDS011;10097;50.862;4.696;2023-02-28T14:21:51;7.10;;;1.87;;
19869;SDS011;10097;50.862;4.696;2023-02-28T14:24:48;5.67;;;1.93;;
19869;SDS011;10097;50.862;4.696;2023-02-28T14:27:31;5.30;;;1.90;;
19869;SDS011;10097;50.862;4.696;2023-02-28T14:33:25;4.97;;;2.23;;
19869;SDS011;10097;50.862;4.696;2023-02-28T14:38:51;9.00;;;2.07;;
19869;SDS011;10097;50.862;4.696;2023-02-28T14:41:22;4.63;;;1.97;;
19869;SDS011;10097;50.862;4.696;2023-02-28T14:44:02;5.47;;;2.00;;
19869;SDS011;10097;50.862;4.696;2023-02-28T14:46:43;4.53;;;1.97;;
19869;SDS011;10097;50.862;4.696;2023-02-28T14:49:18;7.70;;;2.33;;
19869;SDS011;10097;50.862;4.696;2023-02-28T14:52:12;4.57;;;2.07;;
19869;SDS011;10097;50.862;4.696;2023-02-28T14:54:42;5.10;;;2.00;;
19869;SDS011;10097;50.862;4.696;2023-02-28T14:59:56;7.40;;;2.50;;
19869;SDS011;10097;50.862;4.696;2023-02-28T15:02:49;4.23;;;2.10;;
19869;SDS011;10097;50.862;4.696;2023-02-28T15:07:45;4.37;;;2.00;;
19869;SDS011;10097;50.862;4.696;2023-02-28T15:10:19;4.70;;;2.47;;
19869;SDS011;10097;50.862;4.696;2023-02-28T15:13:05;5.50;;;2.40;;
19869;SDS011;10097;50.862;4.696;2023-02-28T15:15:40;7.20;;;2.90;;
19869;SDS011;10097;50.862;4.696;2023-02-28T15:18:15;5.83;;;2.30;;
19869;SDS011;10097;50.862;4.696;2023-02-28T15:20:57;5.20;;;2.20;;
19869;SDS011;10097;50.862;4.696;2023-02-28T15:23:33;5.03;;;2.20;;
19869;SDS011;10097;50.862;4.696;2023-02-28T15:26:01;5.93;;;2.27;;
19869;SDS011;10097;50.862;4.696;2023-02-28T15:28:28;5.67;;;2.60;;
19869;SDS011;10097;50.862;4.696;2023-02-28T15:30:59;4.77;;;1.87;;
19869;SDS011;10097;50.862;4.696;2023-02-28T15:33:28;7.17;;;2.50;;
19869;SDS011;10097;50.862;4.696;2023-02-28T15:38:53;4.07;;;1.80;;
19869;SDS011;10097;50.862;4.696;2023-02-28T15:46:58;8.87;;;2.27;;
19869;SDS011;10097;50.862;4.696;2023-02-28T15:49:36;4.07;;;2.00;;
19869;SDS011;10097;50.862;4.696;2023-02-28T15:52:15;5.50;;;2.30;;
19869;SDS011;10097;50.862;4.696;2023-02-28T15:54:49;4.83;;;2.17;;
19869;SDS011;10097;50.862;4.696;2023-02-28T15:57:17;7.50;;;2.40;;
19869;SDS011;10097;50.862;4.696;2023-02-28T15:59:51;5.13;;;2.40;;
19869;SDS011;10097;50.862;4.696;2023-02-28T16:02:21;6.23;;;2.00;;
19869;SDS011;10097;50.862;4.696;2023-02-28T16:07:32;6.87;;;2.50;;
19869;SDS011;10097;50.862;4.696;2023-02-28T16:09:59;8.90;;;3.00;;
19869;SDS011;10097;50.862;4.696;2023-02-28T16:12:27;7.37;;;2.30;;
19869;SDS011;10097;50.862;4.696;2023-02-28T16:14:55;4.67;;;2.27;;
19869;SDS011;10097;50.862;4.696;2023-02-28T16:17:24;5.57;;;2.33;;
19869;SDS011;10097;50.862;4.696;2023-02-28T16:19:51;4.50;;;2.07;;
19869;SDS011;10097;50.862;4.696;2023-02-28T16:22:18;6.97;;;2.47;;
19869;SDS011;10097;50.862;4.696;2023-02-28T16:24:43;6.63;;;2.77;;
19869;SDS011;10097;50.862;4.696;2023-02-28T16:27:24;5.60;;;2.30;;
19869;SDS011;10097;50.862;4.696;2023-02-28T16:29:56;8.33;;;2.40;;
19869;SDS011;10097;50.862;4.696;2023-02-28T16:32:22;7.83;;;2.30;;
19869;SDS011;10097;50.862;4.696;2023-02-28T16:34:48;5.10;;;2.13;;
19869;SDS011;10097;50.862;4.696;2023-02-28T16:37:14;7.17;;;2.40;;
19869;SDS011;10097;50.862;4.696;2023-02-28T16:39:45;9.30;;;3.53;;
19869;SDS011;10097;50.862;4.696;2023-02-28T16:42:14;7.57;;;2.37;;
19869;SDS011;10097;50.862;4.696;2023-02-28T16:44:43;6.33;;;2.33;;
19869;SDS011;10097;50.862;4.696;2023-02-28T16:47:09;6.57;;;2.53;;
19869;SDS011;10097;50.862;4.696;2023-02-28T16:49:37;10.67;;;2.80;;
19869;SDS011;10097;50.862;4.696;2023-02-28T16:52:04;6.30;;;2.30;;
19869;SDS011;10097;50.862;4.696;2023-02-28T16:54:30;17.33;;;4.87;;
19869;SDS011;10097;50.862;4.696;2023-02-28T16:56:56;55.70;;;14.57;;
19869;SDS011;10097;50.862;4.696;2023-02-28T16:59:22;20.67;;;6.60;;
19869;SDS011;10097;50.862;4.696;2023-02-28T17:01:50;6.43;;;2.50;;
19869;SDS011;10097;50.862;4.696;2023-02-28T17:04:16;7.43;;;2.20;;
19869;SDS011;10097;50.862;4.696;2023-02-28T17:06:42;6.53;;;2.47;;
19869;SDS011;10097;50.862;4.696;2023-02-28T17:09:19;7.53;;;2.67;;
19869;SDS011;10097;50.862;4.696;2023-02-28T17:11:46;7.57;;;2.30;;
19869;SDS011;10097;50.862;4.696;2023-02-28T17:14:13;8.43;;;2.50;;
19869;SDS011;10097;50.862;4.696;2023-02-28T17:16:40;6.10;;;2.07;;
19869;SDS011;10097;50.862;4.696;2023-02-28T17:19:09;8.87;;;2.63;;
19869;SDS011;10097;50.862;4.696;2023-02-28T17:21:38;5.40;;;2.63;;
19869;SDS011;10097;50.862;4.696;2023-02-28T17:24:04;5.23;;;2.40;;
19869;SDS011;10097;50.862;4.696;2023-02-28T17:26:29;7.07;;;2.50;;
19869;SDS011;10097;50.862;4.696;2023-02-28T17:28:56;8.60;;;2.77;;
19869;SDS011;10097;50.862;4.696;2023-02-28T17:31:22;6.37;;;2.47;;
19869;SDS011;10097;50.862;4.696;2023-02-28T17:33:49;5.90;;;2.50;;
19869;SDS011;10097;50.862;4.696;2023-02-28T17:36:22;6.73;;;2.80;;